Time;durP1;ratioP1;P1;durP2;ratioP2;P2;SDS_P1;SDS_P2;PMS_P1;PMS_P2;Temp;Humidity;BMP_temperature;BMP_pressure;BME280_temperature;BME280_humidity;BME280_pressure;Samples;Min_cycle;Max_cycle;Signal;HPM_P1;HPM_P2
2022/11/08 00:01:30;;;;;;;35.60;16.90;;;;;;;5.34;98.18;98901.05;214104;1309;22522;-73
2022/11/08 00:02:57;;;;;;;27.80;15.60;;;;;;;5.30;97.96;98893.89;214283;1310;24324;-73
2022/11/08 00:18:47;;;;;;;33.00;16.50;;;;;;;5.21;98.55;98902.14;214074;1310;24469;-74
2022/11/08 00:23:49;;;;;;;27.00;14.70;;;;;;;5.19;98.70;98905.05;214207;1310;22479;-74
2022/11/08 00:28:51;;;;;;;35.90;17.60;;;;;;;5.17;98.77;98903.33;214061;1310;25345;-73
2022/11/08 00:33:52;;;;;;;29.00;15.80;;;;;;;5.14;98.71;98904.77;214300;1310;22510;-75
2022/11/08 00:38:54;;;;;;;32.70;16.40;;;;;;;5.12;98.86;98902.31;214282;1310;24478;-73
2022/11/08 00:43:56;;;;;;;29.20;15.80;;;;;;;5.09;99.07;98903.83;214323;1310;22634;-73
2022/11/08 00:48:58;;;;;;;26.90;15.00;;;;;;;5.06;99.07;98901.13;214006;1313;24334;-73
2022/11/08 00:54:00;;;;;;;30.70;16.20;;;;;;;5.03;99.05;98898.55;214064;1310;22470;-73
2022/11/08 00:59:02;;;;;;;25.20;14.90;;;;;;;5.02;99.21;98899.22;213994;1310;23852;-73
2022/11/08 01:04:04;;;;;;;28.80;15.20;;;;;;;5.01;99.66;98896.30;214040;1311;24276;-73
2022/11/08 01:09:07;;;;;;;25.00;13.50;;;;;;;5.02;99.52;98897.73;213988;1310;25281;-73
2022/11/08 01:14:08;;;;;;;23.80;13.40;;;;;;;5.05;99.94;98892.55;214294;1310;22482;-73
2022/11/08 01:19:11;;;;;;;25.20;14.10;;;;;;;5.09;100.00;98890.16;214202;1304;22479;-73
2022/11/08 01:24:12;;;;;;;30.80;14.60;;;;;;;5.11;100.00;98886.73;214109;1309;22470;-73
2022/11/08 01:29:14;;;;;;;27.40;14.70;;;;;;;5.12;100.00;98888.50;214123;1310;22466;-73
2022/11/08 01:34:16;;;;;;;27.60;14.30;;;;;;;5.11;100.00;98882.17;214080;1310;22869;-73
2022/11/08 01:39:18;;;;;;;27.50;15.60;;;;;;;5.11;99.98;98879.14;214132;1308;25560;-76
2022/11/08 01:44:21;;;;;;;23.00;14.00;;;;;;;5.12;100.00;98875.01;213885;1310;22566;-74
2022/11/08 01:49:26;;;;;;;23.30;12.50;;;;;;;5.15;100.00;98873.98;213947;1310;22477;-73
2022/11/08 01:54:38;;;;;;;21.50;12.20;;;;;;;5.17;100.00;98873.00;214083;1309;22503;-73
2022/11/08 01:59:44;;;;;;;21.60;12.30;;;;;;;5.19;100.00;98873.23;214080;1310;22531;-74
2022/11/08 02:04:46;;;;;;;22.30;13.00;;;;;;;5.25;100.00;98872.80;214184;1309;25317;-73
2022/11/08 02:09:48;;;;;;;21.30;12.10;;;;;;;5.30;100.00;98871.10;213981;1309;134343;-73
2022/11/08 02:14:50;;;;;;;20.10;13.00;;;;;;;5.33;100.00;98872.19;214198;1309;22519;-73
2022/11/08 02:19:52;;;;;;;21.00;12.30;;;;;;;5.36;100.00;98868.98;214080;1308;22443;-73
2022/11/08 02:24:57;;;;;;;22.50;13.60;;;;;;;5.39;100.00;98860.14;214253;1301;22542;-74
2022/11/08 02:29:59;;;;;;;23.20;13.00;;;;;;;5.40;100.00;98865.09;214073;1309;25258;-73
2022/11/08 02:35:01;;;;;;;22.10;12.50;;;;;;;5.41;100.00;98857.33;213993;1310;24524;-73
2022/11/08 02:40:04;;;;;;;21.60;12.40;;;;;;;5.39;100.00;98857.16;214067;1309;25206;-73
2022/11/08 02:45:06;;;;;;;21.40;12.70;;;;;;;5.38;100.00;98859.59;214265;1309;24212;-73
2022/11/08 02:50:08;;;;;;;23.30;12.90;;;;;;;5.38;100.00;98861.09;213918;1310;22481;-74
2022/11/08 02:55:10;;;;;;;19.90;11.20;;;;;;;5.40;100.00;98858.81;213974;1309;24455;-73
2022/11/08 03:00:13;;;;;;;23.60;13.10;;;;;;;5.41;100.00;98861.00;214309;1309;24285;-73
2022/11/08 03:05:14;;;;;;;24.20;12.10;;;;;;;5.38;100.00;98861.66;214143;1309;25422;-73
2022/11/08 03:10:17;;;;;;;18.90;11.00;;;;;;;5.35;100.00;98858.98;213954;1309;25234;-74
2022/11/08 03:15:19;;;;;;;18.70;12.00;;;;;;;5.32;100.00;98861.02;214430;1310;22547;-73
2022/11/08 03:20:21;;;;;;;18.60;11.40;;;;;;;5.29;100.00;98858.56;214082;1310;25760;-73
2022/11/08 03:25:23;;;;;;;20.30;11.50;;;;;;;5.28;100.00;98858.08;214041;1309;22473;-74
2022/11/08 03:30:25;;;;;;;21.30;12.10;;;;;;;5.26;100.00;98860.34;214258;1309;25503;-74
2022/11/08 03:35:27;;;;;;;19.00;11.10;;;;;;;5.23;100.00;98863.96;214254;1309;23495;-73
2022/11/08 03:40:29;;;;;;;17.80;11.40;;;;;;;5.20;100.00;98861.54;214246;1309;22470;-73
2022/11/08 03:45:31;;;;;;;18.30;10.30;;;;;;;5.19;100.00;98859.63;214281;1309;22546;-73
2022/11/08 03:50:33;;;;;;;16.50;9.90;;;;;;;5.19;100.00;98858.25;213934;1309;24287;-73
2022/11/08 03:55:34;;;;;;;21.70;10.80;;;;;;;5.16;100.00;98855.77;213948;1309;24280;-73
2022/11/08 04:00:36;;;;;;;21.20;11.00;;;;;;;5.14;100.00;98854.11;214199;1309;26211;-72
2022/11/08 04:05:38;;;;;;;18.30;10.10;;;;;;;5.12;100.00;98849.15;213997;1309;22466;-73
2022/11/08 04:10:40;;;;;;;19.80;9.80;;;;;;;5.11;100.00;98853.12;214056;1309;22519;-73
2022/11/08 04:15:42;;;;;;;20.70;11.40;;;;;;;5.10;100.00;98850.24;213964;1309;26174;-74
2022/11/08 04:26:10;;;;;;;22.00;12.70;;;;;;;5.11;100.00;98847.44;214228;1309;22434;-73
2022/11/08 04:31:14;;;;;;;21.60;12.30;;;;;;;5.09;100.00;98841.64;214151;1309;22637;-73
2022/11/08 04:36:16;;;;;;;24.30;12.60;;;;;;;5.06;100.00;98842.71;214252;1309;25216;-73
2022/11/08 04:41:21;;;;;;;19.50;11.10;;;;;;;5.03;100.00;98844.97;213956;1309;25209;-74
2022/11/08 04:46:26;;;;;;;21.20;11.70;;;;;;;5.03;100.00;98854.63;214036;1309;24074;-73
2022/11/08 04:51:30;;;;;;;22.40;13.50;;;;;;;5.05;100.00;98855.88;214102;1309;25257;-73
2022/11/08 04:56:32;;;;;;;23.20;13.30;;;;;;;5.03;100.00;98859.09;214250;1309;22463;-74
2022/11/08 05:01:35;;;;;;;23.90;12.80;;;;;;;4.98;100.00;98862.60;214212;1309;22477;-73
2022/11/08 05:06:37;;;;;;;26.00;14.10;;;;;;;4.90;100.00;98861.45;214155;1309;25396;-73
2022/11/08 05:11:38;;;;;;;26.30;13.50;;;;;;;4.81;100.00;98855.08;214052;1309;22462;-73
2022/11/08 05:16:40;;;;;;;26.30;13.60;;;;;;;4.75;100.00;98848.90;214002;1309;24333;-73
2022/11/08 05:27:03;;;;;;;26.50;14.60;;;;;;;4.61;100.00;98856.98;214062;1309;22464;-74
2022/11/08 05:32:05;;;;;;;29.40;15.10;;;;;;;4.56;100.00;98858.83;214264;1309;25258;-73
2022/11/08 05:37:06;;;;;;;27.70;14.20;;;;;;;4.52;100.00;98858.71;214130;1309;24505;-74
2022/11/08 05:42:08;;;;;;;26.50;14.60;;;;;;;4.49;100.00;98861.48;214007;1309;22482;-73
2022/11/08 05:47:10;;;;;;;32.10;14.90;;;;;;;4.48;100.00;98863.39;214288;1309;22523;-73
2022/11/08 05:52:12;;;;;;;27.10;15.00;;;;;;;4.49;100.00;98866.59;214353;1309;22516;-75
2022/11/08 05:57:14;;;;;;;30.50;15.60;;;;;;;4.51;100.00;98872.08;213821;1309;24243;-73
2022/11/08 06:02:21;;;;;;;28.50;15.80;;;;;;;4.54;100.00;98880.33;214280;1307;22477;-74
2022/11/08 06:07:23;;;;;;;28.50;14.80;;;;;;;4.56;100.00;98881.85;214223;1290;23145;-74
2022/11/08 06:12:25;;;;;;;27.80;14.60;;;;;;;4.58;100.00;98887.35;214089;1309;22667;-74
2022/11/08 06:17:27;;;;;;;34.20;16.60;;;;;;;4.62;100.00;98886.06;214152;1309;22502;-74
2022/11/08 06:22:31;;;;;;;31.30;15.40;;;;;;;4.68;100.00;98881.68;214179;1309;25368;-73
2022/11/08 06:27:35;;;;;;;31.30;15.60;;;;;;;4.76;100.00;98890.63;214292;1295;22600;-74
2022/11/08 06:32:36;;;;;;;30.30;16.70;;;;;;;4.85;100.00;98898.30;214173;1309;24085;-74
2022/11/08 06:37:38;;;;;;;34.70;17.20;;;;;;;4.95;100.00;98898.72;214048;1281;24324;-73
2022/11/08 06:42:40;;;;;;;38.60;17.70;;;;;;;5.05;100.00;98899.73;214289;1286;22510;-73
2022/11/08 06:47:42;;;;;;;31.20;17.30;;;;;;;5.22;100.00;98890.83;214573;1286;25235;-73
2022/11/08 06:52:44;;;;;;;32.60;15.30;;;;;;;5.49;100.00;98891.77;214582;1284;25234;-72
2022/11/08 06:57:46;;;;;;;31.20;15.40;;;;;;;5.69;100.00;98890.69;214847;1281;22568;-73
2022/11/08 07:02:55;;;;;;;28.50;14.70;;;;;;;5.85;100.00;98888.73;214784;1284;24276;-74
2022/11/08 07:07:58;;;;;;;28.30;15.70;;;;;;;6.03;100.00;98889.16;214712;1281;24121;-72
2022/11/08 07:13:02;;;;;;;29.30;14.30;;;;;;;6.21;100.00;98895.88;214896;1284;22484;-72
2022/11/08 07:18:06;;;;;;;24.40;13.10;;;;;;;6.40;100.00;98898.19;214561;1281;27403;-72
2022/11/08 07:23:10;;;;;;;25.30;13.40;;;;;;;6.71;100.00;98897.45;214979;1279;23275;-73
2022/11/08 07:28:16;;;;;;;23.90;12.90;;;;;;;6.99;100.00;98898.02;214565;1286;24405;-71
2022/11/08 07:33:17;;;;;;;20.50;12.00;;;;;;;7.16;100.00;98890.88;215142;1294;25374;-72
2022/11/08 07:38:21;;;;;;;18.90;11.50;;;;;;;7.32;100.00;98886.33;214629;1288;23936;-74
2022/11/08 07:43:23;;;;;;;20.30;11.50;;;;;;;7.48;100.00;98893.98;214880;1281;22500;-74
2022/11/08 07:48:28;;;;;;;20.40;12.20;;;;;;;7.67;100.00;98897.35;215023;1278;22473;-74
2022/11/08 07:53:30;;;;;;;19.40;11.90;;;;;;;7.84;100.00;98894.31;214588;1285;22798;-72
2022/11/08 07:58:33;;;;;;;18.10;11.80;;;;;;;8.02;100.00;98896.65;214678;1281;22826;-73
2022/11/08 08:03:35;;;;;;;19.60;11.90;;;;;;;8.19;100.00;98898.35;214593;1280;23817;-73
2022/11/08 08:08:38;;;;;;;22.00;11.90;;;;;;;8.33;100.00;98902.38;214730;1285;22497;-73
2022/11/08 08:13:40;;;;;;;20.10;11.60;;;;;;;8.48;100.00;98900.17;214664;1281;23923;-73
2022/11/08 08:18:42;;;;;;;18.20;11.40;;;;;;;8.61;99.87;98899.98;214856;1285;22480;-74
2022/11/08 08:23:43;;;;;;;18.70;10.90;;;;;;;8.78;99.65;98903.04;214769;1280;22481;-72
2022/11/08 08:28:45;;;;;;;17.30;10.30;;;;;;;8.94;99.37;98900.19;215507;1278;22514;-72
2022/11/08 08:33:47;;;;;;;22.50;10.90;;;;;;;9.13;98.84;98901.02;214707;1281;22590;-72
2022/11/08 08:38:49;;;;;;;19.20;9.80;;;;;;;9.34;98.84;98904.52;214801;1280;22566;-72
2022/11/08 08:43:51;;;;;;;16.90;9.80;;;;;;;9.55;98.43;98905.73;214873;1281;26443;-73
2022/11/08 08:48:53;;;;;;;16.20;8.60;;;;;;;9.81;98.16;98902.38;214670;1286;25262;-72
2022/11/08 08:53:57;;;;;;;12.10;7.20;;;;;;;10.06;97.58;98904.00;214718;1283;23334;-72
2022/11/08 08:58:59;;;;;;;9.90;6.50;;;;;;;10.35;97.30;98905.40;215000;1281;22506;-72
2022/11/08 09:04:20;;;;;;;7.90;5.20;;;;;;;10.62;96.12;98906.36;214687;1281;22510;-73
2022/11/08 09:09:22;;;;;;;9.50;5.70;;;;;;;10.84;95.41;98913.23;214710;1287;25288;-72
2022/11/08 09:14:24;;;;;;;8.30;4.90;;;;;;;11.07;94.63;98917.20;214561;1288;24323;-72
2022/11/08 09:19:26;;;;;;;7.40;4.80;;;;;;;11.29;93.74;98916.58;214739;1291;25323;-71
2022/11/08 09:24:28;;;;;;;6.70;4.50;;;;;;;11.56;93.20;98914.26;214556;1295;25438;-71
2022/11/08 09:29:30;;;;;;;7.10;4.30;;;;;;;11.80;92.56;98908.90;214869;1295;22471;-74
2022/11/08 09:34:32;;;;;;;5.90;4.00;;;;;;;11.97;92.03;98905.11;214639;1287;22476;-72
2022/11/08 09:39:34;;;;;;;8.30;4.40;;;;;;;12.16;90.42;98903.52;214495;1284;23751;-73
2022/11/08 09:44:44;;;;;;;6.60;3.70;;;;;;;12.30;88.87;98900.95;214500;1289;24354;-73
2022/11/08 09:49:59;;;;;;;5.90;4.00;;;;;;;12.39;87.50;98896.92;214427;1304;24289;-72
2022/11/08 09:55:44;;;;;;;9.60;4.90;;;;;;;12.58;88.50;98890.98;214444;1291;22950;-72
2022/11/08 10:00:49;;;;;;;5.50;3.20;;;;;;;12.80;87.52;98881.67;212953;1289;22534;-72
2022/11/08 10:05:57;;;;;;;9.00;3.20;;;;;;;12.99;87.59;98874.72;214301;1281;25409;-73
2022/11/08 10:11:28;;;;;;;5.90;3.40;;;;;;;13.23;87.95;98869.42;214791;1295;22468;-72
2022/11/08 10:16:42;;;;;;;4.80;2.90;;;;;;;13.46;87.12;98866.44;214759;1281;25010;-72
2022/11/08 10:22:07;;;;;;;6.30;3.10;;;;;;;13.65;86.19;98866.66;214884;1288;22584;-73
2022/11/08 10:27:15;;;;;;;4.80;3.00;;;;;;;13.79;84.29;98858.95;214827;1288;25374;-73
2022/11/08 10:32:20;;;;;;;3.40;1.90;;;;;;;13.90;83.62;98856.95;214722;1289;23238;-75
2022/11/08 10:37:24;;;;;;;4.60;2.40;;;;;;;14.02;83.35;98849.41;214549;1293;24523;-73
2022/11/08 10:42:44;;;;;;;4.20;2.20;;;;;;;14.21;83.35;98849.19;214808;1286;22516;-72
2022/11/08 10:47:46;;;;;;;;;;;;;;;14.38;82.41;98846.48;214752;1295;22607;-72
2022/11/08 10:53:02;;;;;;;3.40;2.10;;;;;;;14.54;81.85;98844.85;214683;1278;22551;-73
2022/11/08 10:58:40;;;;;;;4.00;2.30;;;;;;;14.61;81.06;98837.33;214498;1283;22517;-72
2022/11/08 11:03:44;;;;;;;3.50;2.20;;;;;;;14.66;78.25;98840.94;215048;1281;23218;-72
2022/11/08 11:08:48;;;;;;;4.80;2.50;;;;;;;14.70;78.06;98835.27;214759;1288;22947;-74
2022/11/08 11:14:06;;;;;;;5.50;2.60;;;;;;;14.79;78.80;98825.14;215038;1278;22511;-75
2022/11/08 11:19:13;;;;;;;8.80;7.10;;;;;;;14.88;78.48;98821.80;214756;1281;22990;-73
2022/11/08 11:24:19;;;;;;;6.70;3.10;;;;;;;15.01;78.54;98820.75;214712;1284;23506;-74
2022/11/08 11:29:29;;;;;;;5.60;2.30;;;;;;;15.12;77.34;98818.28;215015;1309;22487;-74
2022/11/08 11:34:49;;;;;;;4.80;2.30;;;;;;;15.18;77.01;98819.94;214708;1309;22499;-73
2022/11/08 11:40:03;;;;;;;4.70;2.10;;;;;;;15.23;76.99;98816.62;214611;1285;23259;-73
2022/11/08 11:45:27;;;;;;;4.40;2.30;;;;;;;15.28;77.05;98812.60;214607;1287;22605;-73
2022/11/08 11:50:36;;;;;;;4.00;2.60;;;;;;;15.30;75.79;98809.08;214545;1309;22498;-73
2022/11/08 11:55:50;;;;;;;5.20;2.90;;;;;;;15.31;75.23;98807.65;214611;1281;22485;-73
2022/11/08 12:01:14;;;;;;;4.20;2.00;;;;;;;15.35;75.54;98807.64;214817;1293;23277;-72
2022/11/08 12:06:25;;;;;;;6.60;2.60;;;;;;;15.49;76.30;98800.00;214808;1281;24365;-73
2022/11/08 12:11:39;;;;;;;3.40;2.50;;;;;;;15.55;75.38;98793.80;214570;1281;26421;-73
2022/11/08 12:16:56;;;;;;;3.60;1.90;;;;;;;15.54;74.05;98788.96;214433;1291;24363;-73
2022/11/08 12:22:11;;;;;;;3.60;1.80;;;;;;;15.55;73.49;98778.46;214718;1288;22557;-73
2022/11/08 12:27:22;;;;;;;2.40;1.70;;;;;;;15.53;72.53;98774.89;214525;1295;22521;-73
2022/11/08 12:32:42;;;;;;;3.30;2.00;;;;;;;15.44;69.74;98771.10;214628;1281;26485;-73
2022/11/08 12:38:23;;;;;;;5.20;2.10;;;;;;;15.35;70.52;98769.89;214507;1287;23192;-74
2022/11/08 12:43:30;;;;;;;7.50;1.90;;;;;;;15.30;70.58;98767.03;214552;1281;22782;-73
2022/11/08 12:49:00;;;;;;;4.70;2.40;;;;;;;15.28;71.19;98765.64;214598;1284;25403;-73
2022/11/08 12:54:28;;;;;;;3.40;2.00;;;;;;;15.29;70.48;98758.59;214560;1281;25350;-72
2022/11/08 12:59:44;;;;;;;5.00;2.30;;;;;;;15.30;70.33;98752.23;214486;1281;22549;-73
2022/11/08 13:05:01;;;;;;;2.80;2.10;;;;;;;15.32;71.02;98754.33;214485;1285;22513;-74
2022/11/08 13:10:19;;;;;;;3.10;2.50;;;;;;;15.32;70.77;98751.22;214787;1295;22480;-74
2022/11/08 13:15:24;;;;;;;2.90;2.20;;;;;;;15.28;70.45;98750.05;214611;1285;22517;-72
2022/11/08 13:20:46;;;;;;;5.60;2.40;;;;;;;15.23;71.42;98756.09;214671;1281;25211;-74
2022/11/08 13:25:50;;;;;;;2.60;2.00;;;;;;;15.17;71.84;98755.83;214800;1287;22482;-73
2022/11/08 13:31:01;;;;;;;6.20;2.60;;;;;;;15.13;72.65;98753.81;214660;1281;22501;-73
2022/11/08 13:36:08;;;;;;;7.90;3.00;;;;;;;15.06;72.56;98747.19;215103;1281;25326;-73
2022/11/08 13:41:16;;;;;;;4.60;2.50;;;;;;;14.98;73.11;98745.70;214701;1284;24375;-73
2022/11/08 13:46:18;;;;;;;7.40;3.80;;;;;;;14.92;72.80;98746.21;214491;1288;22482;-73
2022/11/08 13:51:22;;;;;;;6.30;3.80;;;;;;;14.85;72.53;98741.36;214544;1281;23913;-75
2022/11/08 13:56:42;;;;;;;10.20;3.60;;;;;;;14.77;72.95;98731.67;214620;1284;24254;-75
2022/11/08 14:01:44;;;;;;;6.60;3.60;;;;;;;14.67;72.84;98728.86;214529;1284;22533;-75
2022/11/08 14:07:05;;;;;;;5.70;3.50;;;;;;;14.58;72.91;98729.11;214768;1286;22480;-76
2022/11/08 14:12:07;;;;;;;5.90;3.00;;;;;;;14.44;73.07;98726.92;214455;1288;143995;-75
2022/11/08 14:17:33;;;;;;;5.10;3.60;;;;;;;14.32;73.11;98722.20;214867;1287;22512;-75
2022/11/08 14:22:34;;;;;;;6.80;3.50;;;;;;;14.21;73.33;98725.58;215102;1288;22480;-74
2022/11/08 14:27:38;;;;;;;7.50;4.10;;;;;;;14.12;73.80;98724.70;214690;1281;22829;-75
2022/11/08 14:32:41;;;;;;;4.60;3.00;;;;;;;14.01;74.39;98729.64;214604;1281;22595;-73
2022/11/08 14:37:43;;;;;;;7.90;4.60;;;;;;;13.89;74.63;98726.59;214631;1286;23753;-72
2022/11/08 14:42:45;;;;;;;7.80;3.50;;;;;;;13.73;75.03;98724.69;214575;1284;22551;-72
2022/11/08 14:48:02;;;;;;;6.60;4.00;;;;;;;13.55;75.22;98724.73;214484;1280;22504;-75
2022/11/08 14:53:16;;;;;;;7.60;4.40;;;;;;;13.37;75.59;98721.67;214518;1288;22468;-74
2022/11/08 14:58:18;;;;;;;9.00;5.60;;;;;;;13.19;76.03;98723.58;214604;1286;22509;-73
2022/11/08 15:03:27;;;;;;;10.90;5.20;;;;;;;13.00;76.53;98719.02;214464;1288;22594;-73
2022/11/08 15:08:51;;;;;;;12.50;5.40;;;;;;;12.81;77.00;98718.59;214346;1309;22693;-73
2022/11/08 15:13:58;;;;;;;10.20;6.10;;;;;;;12.62;77.32;98713.86;214179;1304;22482;-73
2022/11/08 15:19:36;;;;;;;18.40;7.00;;;;;;;12.44;77.65;98714.64;214279;1309;22463;-73
2022/11/08 15:24:38;;;;;;;10.20;6.70;;;;;;;12.23;78.11;98719.75;214038;1309;24292;-72
2022/11/08 15:29:51;;;;;;;12.20;7.10;;;;;;;12.05;78.46;98719.14;214047;1309;23728;-74
2022/11/08 15:34:55;;;;;;;9.10;5.80;;;;;;;11.85;78.63;98709.98;214040;1308;22602;-73
2022/11/08 15:40:15;;;;;;;13.20;6.60;;;;;;;11.69;78.94;98706.59;214363;1309;22606;-72
2022/11/08 15:45:16;;;;;;;14.00;8.30;;;;;;;11.51;79.34;98700.44;214252;1309;22486;-73
2022/11/08 15:50:21;;;;;;;15.20;7.60;;;;;;;11.33;79.54;98698.83;214152;1304;22477;-73
2022/11/08 15:55:49;;;;;;;13.80;7.80;;;;;;;11.14;80.02;98693.83;213922;1309;22677;-73
2022/11/08 16:00:51;;;;;;;14.60;8.60;;;;;;;10.93;80.22;98690.41;214099;1301;22453;-72
2022/11/08 16:05:53;;;;;;;16.80;8.40;;;;;;;10.75;80.46;98693.14;214176;1309;22481;-71
2022/11/08 16:10:58;;;;;;;18.70;7.40;;;;;;;10.57;80.95;98690.04;214239;1309;24324;-73
2022/11/08 16:16:03;;;;;;;17.70;8.10;;;;;;;10.39;81.30;98690.23;214172;1309;22718;-73
2022/11/08 16:21:08;;;;;;;16.20;9.00;;;;;;;10.23;81.58;98702.77;213941;1309;22465;-73
2022/11/08 16:26:15;;;;;;;22.70;11.50;;;;;;;10.07;81.95;98704.42;214137;1309;22473;-73
2022/11/08 16:31:17;;;;;;;21.70;11.90;;;;;;;9.92;82.30;98705.30;213988;1287;25215;-72
2022/11/08 16:36:22;;;;;;;21.40;9.70;;;;;;;9.80;82.61;98706.02;214075;1293;22476;-73
2022/11/08 16:41:24;;;;;;;21.70;11.20;;;;;;;9.67;82.70;98707.18;214099;1309;24556;-73
2022/11/08 16:46:27;;;;;;;24.70;12.80;;;;;;;9.54;83.18;98709.60;214084;1309;24922;-73
2022/11/08 16:51:29;;;;;;;26.20;14.20;;;;;;;9.44;83.46;98711.09;214339;1305;22715;-74
2022/11/08 16:56:31;;;;;;;26.80;15.10;;;;;;;9.36;83.74;98716.95;214098;1309;22494;-72
2022/11/08 17:01:33;;;;;;;34.30;16.60;;;;;;;9.27;84.01;98717.89;214018;1301;22483;-74
2022/11/08 17:06:35;;;;;;;36.50;18.60;;;;;;;9.18;84.26;98721.05;214167;1308;24092;-72
2022/11/08 17:11:38;;;;;;;34.10;16.70;;;;;;;9.10;84.56;98719.78;214034;1301;22612;-73
2022/11/08 17:16:40;;;;;;;27.70;14.60;;;;;;;9.04;84.68;98723.02;213997;1309;22479;-73
2022/11/08 17:21:42;;;;;;;31.70;15.60;;;;;;;9.04;85.31;98725.23;213991;1309;24140;-73
2022/11/08 17:26:46;;;;;;;30.60;15.80;;;;;;;9.05;85.25;98728.90;214165;1309;22517;-73
2022/11/08 17:31:48;;;;;;;31.70;15.80;;;;;;;9.02;85.51;98727.05;214066;1302;24331;-73
2022/11/08 17:36:51;;;;;;;25.60;13.20;;;;;;;9.00;85.65;98724.73;214085;1310;25286;-72
2022/11/08 17:41:53;;;;;;;23.90;11.90;;;;;;;8.99;85.81;98725.63;213942;1304;22597;-72
2022/11/08 17:46:55;;;;;;;32.50;15.90;;;;;;;9.01;86.07;98730.59;214071;1309;22556;-75
2022/11/08 17:51:57;;;;;;;64.60;33.00;;;;;;;8.96;85.65;98727.38;214033;1309;25885;-73
2022/11/08 17:56:59;;;;;;;40.30;22.50;;;;;;;8.86;85.83;98729.14;214165;1309;25381;-72
2022/11/08 18:02:02;;;;;;;24.70;14.50;;;;;;;8.80;86.03;98725.66;213988;1309;22479;-72
2022/11/08 18:07:04;;;;;;;24.20;12.20;;;;;;;8.79;86.56;98727.86;214162;1309;25252;-72
2022/11/08 18:12:06;;;;;;;21.20;11.50;;;;;;;8.81;86.92;98729.29;214186;1308;24113;-71
2022/11/08 18:17:08;;;;;;;26.00;13.00;;;;;;;8.89;87.53;98734.20;214296;1309;24254;-75
2022/11/08 18:22:10;;;;;;;23.40;12.80;;;;;;;8.95;87.51;98729.67;214113;1301;24109;-74
2022/11/08 18:27:12;;;;;;;20.90;10.30;;;;;;;8.98;87.81;98728.73;214260;1307;22949;-75
2022/11/08 18:32:14;;;;;;;21.50;11.40;;;;;;;9.01;88.05;98727.23;214265;1309;23754;-76
2022/11/08 18:37:16;;;;;;;22.60;11.20;;;;;;;9.05;88.37;98728.84;214126;1310;23478;-76
2022/11/08 18:42:18;;;;;;;20.80;11.60;;;;;;;9.06;88.36;98725.04;214271;1295;26393;-75
2022/11/08 18:47:20;;;;;;;20.60;10.70;;;;;;;9.04;88.45;98725.96;214007;1310;22600;-75
2022/11/08 18:52:21;;;;;;;19.60;11.60;;;;;;;9.01;88.53;98724.87;214327;1300;22458;-75
2022/11/08 18:57:23;;;;;;;22.00;11.20;;;;;;;8.95;88.53;98728.01;214284;1310;25327;-76
2022/11/08 19:02:25;;;;;;;18.50;9.70;;;;;;;8.90;88.70;98724.22;214168;1301;22842;-76
2022/11/08 19:07:28;;;;;;;22.90;11.90;;;;;;;8.87;89.21;98726.20;214065;1310;22467;-75
2022/11/08 19:12:30;;;;;;;22.50;11.60;;;;;;;8.85;89.31;98734.07;214100;1293;22483;-76
2022/11/08 19:17:34;;;;;;;19.30;10.80;;;;;;;8.79;89.16;98734.96;213968;1309;22467;-75
2022/11/08 19:22:36;;;;;;;23.30;12.00;;;;;;;8.70;89.38;98736.19;214050;1303;22498;-75
2022/11/08 19:27:37;;;;;;;24.90;11.80;;;;;;;8.64;89.46;98731.69;214095;1310;25212;-75
2022/11/08 19:32:39;;;;;;;19.50;10.50;;;;;;;8.54;89.56;98736.23;214238;1310;25446;-76
2022/11/08 19:37:41;;;;;;;19.40;11.10;;;;;;;8.44;89.77;98739.20;214307;1310;22479;-76
2022/11/08 19:42:43;;;;;;;22.60;11.40;;;;;;;8.35;89.92;98736.02;214239;1313;22514;-75
2022/11/08 19:47:47;;;;;;;24.30;12.40;;;;;;;8.28;90.29;98737.55;214063;1311;22611;-75
2022/11/08 19:52:49;;;;;;;27.10;13.70;;;;;;;8.22;90.52;98742.91;214325;1301;26487;-76
2022/11/08 19:57:51;;;;;;;23.50;12.10;;;;;;;8.16;90.69;98745.02;214157;1309;22471;-75
2022/11/08 20:02:53;;;;;;;22.10;12.00;;;;;;;8.13;91.13;98744.86;214012;1294;25159;-75
2022/11/08 20:07:55;;;;;;;20.60;11.40;;;;;;;8.14;91.57;98751.80;214027;1310;22617;-76
2022/11/08 20:12:57;;;;;;;21.60;11.40;;;;;;;8.20;92.11;98748.05;214298;1285;22464;-76
2022/11/08 20:17:58;;;;;;;24.10;12.00;;;;;;;8.30;92.74;98750.85;214250;1306;22501;-75
2022/11/08 20:23:00;;;;;;;22.30;11.00;;;;;;;8.41;93.07;98751.92;214266;1309;22475;-76
2022/11/08 20:28:03;;;;;;;20.30;11.30;;;;;;;8.50;93.22;98747.89;214129;1309;25774;-75
2022/11/08 20:33:05;;;;;;;22.90;12.30;;;;;;;8.58;93.59;98746.78;214238;1309;22554;-75
2022/11/08 20:38:07;;;;;;;25.10;12.80;;;;;;;8.66;93.66;98736.00;214307;1310;22534;-76
2022/11/08 20:43:08;;;;;;;25.40;13.00;;;;;;;8.74;93.64;98735.11;214245;1309;22485;-75
2022/11/08 20:48:10;;;;;;;21.30;12.10;;;;;;;8.81;93.62;98730.36;214075;1309;24750;-75
2022/11/08 20:53:14;;;;;;;20.20;11.40;;;;;;;8.92;93.93;98726.80;214166;1309;23101;-76
2022/11/08 20:58:16;;;;;;;21.40;11.50;;;;;;;9.06;93.57;98728.95;213999;1309;22455;-76
2022/11/08 21:03:20;;;;;;;17.80;10.50;;;;;;;9.13;93.39;98734.45;214084;1309;24084;-76
2022/11/08 21:08:23;;;;;;;19.70;10.90;;;;;;;9.22;93.07;98740.95;214235;1309;25368;-76
2022/11/08 21:13:46;;;;;;;18.80;10.40;;;;;;;9.26;93.08;98734.71;214346;1310;22488;-77
2022/11/08 21:18:47;;;;;;;20.10;11.20;;;;;;;9.32;93.03;98733.77;214150;1309;22483;-74
2022/11/08 21:23:50;;;;;;;19.70;11.00;;;;;;;9.36;93.07;98735.72;214327;1302;24754;-75
2022/11/08 21:28:53;;;;;;;20.90;11.30;;;;;;;9.44;92.94;98733.66;214094;1309;23907;-75
2022/11/08 21:33:54;;;;;;;21.00;10.70;;;;;;;9.49;92.72;98732.77;214291;1309;22506;-75
2022/11/08 21:38:56;;;;;;;19.60;10.50;;;;;;;9.49;92.64;98727.62;214022;1309;23753;-75
2022/11/08 21:43:58;;;;;;;21.00;11.90;;;;;;;9.50;92.43;98724.45;214202;1309;22523;-76
2022/11/08 21:49:01;;;;;;;18.30;10.50;;;;;;;9.53;92.49;98728.71;214171;1309;24323;-76
2022/11/08 21:54:04;;;;;;;20.70;9.90;;;;;;;9.53;92.39;98728.39;214009;1309;22475;-76
2022/11/08 21:59:05;;;;;;;18.30;10.30;;;;;;;9.50;92.27;98733.27;214341;1309;26469;-75
2022/11/08 22:04:07;;;;;;;17.60;10.10;;;;;;;9.46;92.08;98735.31;214113;1305;23782;-75
2022/11/08 22:09:10;;;;;;;20.80;11.00;;;;;;;9.42;92.41;98736.56;214086;1309;22466;-74
2022/11/08 22:14:12;;;;;;;18.40;10.70;;;;;;;9.41;92.59;98740.10;214062;1309;24655;-74
2022/11/08 22:19:13;;;;;;;23.30;11.40;;;;;;;9.42;92.63;98740.80;213990;1309;23242;-74
2022/11/08 22:24:19;;;;;;;18.80;10.40;;;;;;;9.39;92.34;98744.92;214204;1309;25336;-76
2022/11/08 22:29:21;;;;;;;20.60;10.60;;;;;;;9.35;92.57;98744.17;214156;1309;22482;-76
2022/11/08 22:34:23;;;;;;;21.30;11.70;;;;;;;9.31;92.71;98746.06;214103;1295;22484;-76
2022/11/08 22:39:25;;;;;;;18.40;10.60;;;;;;;9.29;93.08;98740.52;214104;1309;25487;-77
2022/11/08 22:44:27;;;;;;;19.60;11.00;;;;;;;9.32;93.26;98747.49;214268;1284;25280;-76
2022/11/08 22:49:29;;;;;;;22.10;11.50;;;;;;;9.34;93.22;98743.80;214276;1309;25155;-77
2022/11/08 22:54:31;;;;;;;22.90;12.10;;;;;;;9.33;92.93;98747.76;213999;1309;23266;-76
2022/11/08 22:59:33;;;;;;;21.70;11.20;;;;;;;9.30;93.34;98746.19;214066;1309;24071;-76
2022/11/08 23:04:35;;;;;;;20.50;10.80;;;;;;;9.25;93.00;98746.27;214138;1308;23198;-75
2022/11/08 23:09:37;;;;;;;20.10;11.80;;;;;;;9.21;93.28;98741.77;214313;1309;22496;-75
2022/11/08 23:25:20;;;;;;;20.70;11.40;;;;;;;9.17;93.54;98736.98;214264;1309;25470;-76
2022/11/08 23:36:09;;;;;;;21.20;11.60;;;;;;;9.15;93.44;98742.29;214033;1310;22486;-75
2022/11/08 23:46:24;;;;;;;21.00;10.70;;;;;;;9.15;93.42;98733.05;214231;1309;25337;-75
2022/11/08 23:51:26;;;;;;;21.80;11.80;;;;;;;9.13;93.33;98734.02;214009;1309;24846;-76
2022/11/08 23:56:28;;;;;;;21.40;11.20;;;;;;;9.13;93.47;98733.11;214382;1309;25553;-76
